createdAt,value
2023-01-23T00:01:33.946Z,102379.25
2023-01-23T00:04:01.195Z,102359.25
2023-01-23T00:06:29.152Z,102374.91
2023-01-23T00:08:58.611Z,102364.38
2023-01-23T00:11:28.590Z,102374.88
2023-01-23T00:13:57.589Z,102341.66
2023-01-23T00:16:26.544Z,102353.88
2023-01-23T00:18:56.170Z,102372.50
2023-01-23T00:21:25.990Z,102279.34
2023-01-23T00:23:56.200Z,102381.81
2023-01-23T00:26:26.676Z,102382.09
2023-01-23T00:28:54.336Z,102373.38
2023-01-23T00:31:25.344Z,102360.00
2023-01-23T00:34:04.284Z,102369.06
2023-01-23T00:36:37.877Z,102374.25
2023-01-23T00:39:08.135Z,102385.84
2023-01-23T00:41:35.478Z,102379.22
2023-01-23T00:44:04.629Z,102382.94
2023-01-23T00:46:31.695Z,102372.84
2023-01-23T00:48:58.769Z,102385.78
2023-01-23T00:51:26.127Z,102390.84
2023-01-23T00:53:53.479Z,102385.44
2023-01-23T00:56:20.484Z,102297.38
2023-01-23T00:58:47.577Z,102397.56
2023-01-23T01:01:16.341Z,102397.97
2023-01-23T01:03:43.889Z,102391.81
2023-01-23T01:06:12.002Z,102398.97
2023-01-23T01:08:39.313Z,102380.13
2023-01-23T01:11:06.499Z,102391.28
2023-01-23T01:13:33.865Z,102393.41
2023-01-23T01:16:02.232Z,102386.09
2023-01-23T01:18:30.212Z,102401.19
2023-01-23T01:20:57.980Z,102380.78
2023-01-23T01:23:25.549Z,102399.34
2023-01-23T01:25:52.709Z,102409.56
2023-01-23T01:28:21.384Z,102363.56
2023-01-23T01:30:48.385Z,102374.78
2023-01-23T01:33:15.507Z,102382.31
2023-01-23T01:35:42.504Z,102399.13
2023-01-23T01:38:09.499Z,102380.16
2023-01-23T01:40:37.308Z,102400.03
2023-01-23T01:43:08.226Z,102398.09
2023-01-23T01:46:12.214Z,102401.03
2023-01-23T01:49:03.910Z,102401.78
2023-01-23T01:51:44.437Z,102402.31
2023-01-23T01:54:29.214Z,102391.59
2023-01-23T01:57:05.161Z,102388.78
2023-01-23T02:00:07.375Z,102404.72
2023-01-23T02:02:43.985Z,102395.13
2023-01-23T02:05:15.689Z,102381.69
2023-01-23T02:07:49.781Z,102412.13
2023-01-23T02:10:16.908Z,102396.31
2023-01-23T02:12:48.952Z,102403.94
2023-01-23T02:15:17.389Z,102404.47
2023-01-23T02:17:47.300Z,102407.41
2023-01-23T02:20:34.862Z,102393.66
2023-01-23T02:23:17.079Z,102399.88
2023-01-23T02:25:43.944Z,102393.28
2023-01-23T02:28:15.243Z,102394.31
2023-01-23T02:30:46.899Z,102389.22
2023-01-23T02:33:19.967Z,102383.97
2023-01-23T02:35:47.393Z,102387.50
2023-01-23T02:38:15.246Z,102400.25
2023-01-23T02:40:43.055Z,102393.50
2023-01-23T02:43:21.382Z,102387.31
2023-01-23T02:45:56.109Z,102361.78
2023-01-23T02:48:24.401Z,102379.34
2023-01-23T02:50:51.430Z,102383.28
2023-01-23T02:53:18.492Z,102367.16
2023-01-23T02:55:46.023Z,102388.63
2023-01-23T02:58:32.164Z,102393.09
2023-01-23T03:00:59.297Z,102372.97
2023-01-23T03:03:29.130Z,102384.69
2023-01-23T03:05:57.940Z,102404.19
2023-01-23T03:08:33.462Z,102391.78
2023-01-23T03:11:02.309Z,102394.78
2023-01-23T03:13:29.763Z,102393.31
2023-01-23T03:16:00.051Z,102404.41
2023-01-23T03:18:31.061Z,102382.22
2023-01-23T03:21:05.798Z,102397.59
2023-01-23T03:23:33.157Z,102397.31
2023-01-23T03:26:00.127Z,102401.91
2023-01-23T03:28:48.967Z,102329.25
2023-01-23T03:31:16.875Z,102399.25
2023-01-23T03:33:45.358Z,102395.88
2023-01-23T03:36:13.841Z,102404.03
2023-01-23T03:39:01.846Z,102416.72
2023-01-23T03:41:29.156Z,102372.88
2023-01-23T03:44:01.556Z,102389.03
2023-01-23T03:46:28.565Z,102402.84
2023-01-23T03:48:55.538Z,102403.28
2023-01-23T03:51:22.738Z,102394.16
2023-01-23T03:53:50.597Z,102419.75
2023-01-23T03:56:17.587Z,102380.25
2023-01-23T03:58:44.578Z,102412.41
2023-01-23T04:01:14.023Z,102419.63
2023-01-23T04:03:43.437Z,102418.44
2023-01-23T04:06:10.880Z,102416.53
2023-01-23T04:08:38.479Z,102399.47
2023-01-23T04:11:07.783Z,102428.28
2023-01-23T04:13:35.971Z,102415.94
2023-01-23T04:16:04.181Z,102419.31
2023-01-23T04:18:31.684Z,102394.56
2023-01-23T04:20:59.619Z,102401.00
2023-01-23T04:23:26.760Z,102420.81
2023-01-23T04:25:54.345Z,102348.19
2023-01-23T04:28:22.139Z,102405.09
2023-01-23T04:30:51.802Z,102399.59
2023-01-23T04:33:25.620Z,102422.72
2023-01-23T04:36:02.020Z,102353.16
2023-01-23T04:38:31.559Z,102426.22
2023-01-23T04:41:18.073Z,102427.53
2023-01-23T04:43:45.216Z,102433.84
2023-01-23T04:46:12.417Z,102432.47
2023-01-23T04:48:59.596Z,102431.06
2023-01-23T04:51:27.575Z,102420.44
2023-01-23T04:53:54.701Z,102442.56
2023-01-23T04:56:22.720Z,102445.00
2023-01-23T04:58:50.332Z,102442.63
2023-01-23T05:01:23.410Z,102453.03
2023-01-23T05:03:55.530Z,102448.28
2023-01-23T05:06:22.815Z,102439.09
2023-01-23T05:08:52.595Z,102452.09
2023-01-23T05:11:25.912Z,102460.47
2023-01-23T05:13:52.891Z,102448.16
2023-01-23T05:16:21.297Z,102452.97
2023-01-23T05:19:06.825Z,102470.06
2023-01-23T05:21:34.475Z,102463.81
2023-01-23T05:24:01.558Z,102474.56
2023-01-23T05:26:28.638Z,102412.94
2023-01-23T05:28:56.633Z,102389.56
2023-01-23T05:31:25.269Z,102459.94
2023-01-23T05:34:12.288Z,102473.16
2023-01-23T05:36:40.453Z,102451.13
2023-01-23T05:39:08.121Z,102478.13
2023-01-23T05:41:35.160Z,102433.91
2023-01-23T05:44:21.285Z,102471.53
2023-01-23T05:46:52.789Z,102485.31
2023-01-23T05:49:19.848Z,102468.97
2023-01-23T05:51:47.004Z,102481.38
2023-01-23T05:54:14.367Z,102483.50
2023-01-23T05:56:45.013Z,102487.63
2023-01-23T05:59:31.255Z,102487.47
2023-01-23T06:02:13.351Z,102473.03
2023-01-23T06:05:07.057Z,102490.41
2023-01-23T06:07:56.551Z,102486.63
2023-01-23T06:10:24.398Z,102420.31
2023-01-23T06:12:51.489Z,102489.91
2023-01-23T06:15:19.003Z,102499.09
2023-01-23T06:17:46.506Z,102495.09
2023-01-23T06:20:13.979Z,102496.59
2023-01-23T06:22:45.693Z,102509.00
2023-01-23T06:25:14.311Z,102503.31
2023-01-23T06:27:41.606Z,102500.75
2023-01-23T06:30:10.516Z,102491.88
2023-01-23T06:32:41.130Z,102463.47
2023-01-23T06:35:09.872Z,102499.69
2023-01-23T06:37:42.457Z,102510.19
2023-01-23T06:40:15.742Z,102512.00
2023-01-23T06:42:55.249Z,102510.19
2023-01-23T06:45:22.910Z,102512.00
2023-01-23T06:47:52.628Z,102495.09
2023-01-23T06:50:20.160Z,102521.47
2023-01-23T06:52:47.402Z,102509.00
2023-01-23T06:55:14.684Z,102509.66
2023-01-23T06:57:42.998Z,102498.41
2023-01-23T07:00:11.396Z,102517.59
2023-01-23T07:02:40.573Z,102519.44
2023-01-23T07:05:08.197Z,102518.09
2023-01-23T07:07:36.431Z,102521.31
2023-01-23T07:10:03.649Z,102527.38
2023-01-23T07:12:31.114Z,102502.34
2023-01-23T07:14:58.130Z,102519.44
2023-01-23T07:17:33.432Z,102506.09
2023-01-23T07:20:00.862Z,102504.88
2023-01-23T07:22:27.883Z,102481.63
2023-01-23T07:24:55.049Z,102515.78
2023-01-23T07:27:22.005Z,102509.34
2023-01-23T07:29:49.006Z,102510.38
2023-01-23T07:32:16.071Z,102512.63
2023-01-23T07:34:43.107Z,102479.69
2023-01-23T07:37:10.117Z,102510.63
2023-01-23T07:39:37.064Z,102494.25
2023-01-23T07:42:04.088Z,102509.69
2023-01-23T07:44:31.187Z,102520.25
2023-01-23T07:46:58.183Z,102524.00
2023-01-23T07:49:25.257Z,102514.25
2023-01-23T07:51:52.232Z,102509.28
2023-01-23T07:54:19.266Z,102516.19
2023-01-23T07:56:50.242Z,102515.69
2023-01-23T07:59:17.294Z,102523.66
2023-01-23T08:01:44.750Z,102494.25
2023-01-23T08:04:11.784Z,102508.78
2023-01-23T08:06:39.012Z,102508.53
2023-01-23T08:09:05.987Z,102507.50
2023-01-23T08:11:34.370Z,102529.81
2023-01-23T08:14:01.685Z,102529.66
2023-01-23T08:16:29.246Z,102509.34
2023-01-23T08:18:56.289Z,102525.63
2023-01-23T08:21:23.708Z,102515.91
2023-01-23T08:23:50.682Z,102520.19
2023-01-23T08:26:17.958Z,102524.88
2023-01-23T08:28:46.067Z,102497.91
2023-01-23T08:31:13.574Z,102514.78
2023-01-23T08:33:40.653Z,102535.81
2023-01-23T08:36:11.232Z,102541.44
2023-01-23T08:38:38.888Z,102516.53
2023-01-23T08:41:06.908Z,102520.34
2023-01-23T08:43:33.903Z,102539.28
2023-01-23T08:46:00.950Z,102542.19
2023-01-23T08:48:28.801Z,102542.06
2023-01-23T08:51:08.232Z,102543.03
2023-01-23T08:53:36.543Z,102515.34
2023-01-23T08:56:06.719Z,102536.63
2023-01-23T08:58:34.268Z,102543.69
2023-01-23T09:01:01.279Z,102532.00
2023-01-23T09:03:28.722Z,102537.44
2023-01-23T09:05:55.854Z,102543.13
2023-01-23T09:08:22.865Z,102519.88
2023-01-23T09:10:49.929Z,102537.03
2023-01-23T09:13:19.744Z,102530.09
2023-01-23T09:15:47.240Z,102530.28
2023-01-23T09:18:14.195Z,102530.50
2023-01-23T09:20:41.538Z,102527.03
2023-01-23T09:23:08.617Z,102481.31
2023-01-23T09:25:35.835Z,102526.81
2023-01-23T09:28:03.617Z,102530.69
2023-01-23T09:30:30.617Z,102528.63
2023-01-23T09:32:57.657Z,102506.44
2023-01-23T09:35:24.780Z,102521.81
2023-01-23T09:38:00.959Z,102520.19
2023-01-23T09:40:32.181Z,102517.88
2023-01-23T09:43:11.844Z,102516.66
2023-01-23T09:45:41.446Z,102515.50
2023-01-23T09:48:17.645Z,102519.28
2023-01-23T09:51:07.043Z,102513.19
2023-01-23T09:53:40.013Z,102507.53
2023-01-23T09:56:20.677Z,102448.66
2023-01-23T09:59:12.255Z,102510.38
2023-01-23T10:01:39.472Z,102488.31
2023-01-23T10:04:10.645Z,102494.97
2023-01-23T10:07:22.483Z,102516.13
2023-01-23T10:10:08.261Z,102513.06
2023-01-23T10:12:54.993Z,102515.97
2023-01-23T10:15:42.167Z,102519.28
2023-01-23T10:18:39.919Z,102515.88
2023-01-23T10:21:06.839Z,102517.69
2023-01-23T10:23:48.131Z,102488.94
2023-01-23T10:26:24.931Z,102516.53
2023-01-23T10:28:59.472Z,102483.00
2023-01-23T10:31:32.624Z,102523.84
2023-01-23T10:34:13.657Z,102501.81
2023-01-23T10:36:55.122Z,102500.97
2023-01-23T10:39:40.665Z,102522.63
2023-01-23T10:42:14.126Z,102513.28
2023-01-23T10:44:41.053Z,102473.63
2023-01-23T10:47:32.780Z,102502.91
2023-01-23T10:50:00.381Z,102511.03
2023-01-23T10:52:33.941Z,102506.38
2023-01-23T10:55:01.681Z,102474.69
2023-01-23T10:57:58.345Z,102505.97
2023-01-23T11:00:36.050Z,102487.59
2023-01-23T11:03:26.359Z,102497.56
2023-01-23T11:05:56.301Z,102479.19
2023-01-23T11:08:36.556Z,102488.88
2023-01-23T11:11:18.740Z,102485.59
2023-01-23T11:13:49.384Z,102476.72
2023-01-23T11:16:22.847Z,102487.72
2023-01-23T11:19:10.077Z,102489.81
2023-01-23T11:21:54.947Z,102492.22
2023-01-23T11:24:39.037Z,102492.97
2023-01-23T11:27:20.575Z,102487.00
2023-01-23T11:30:11.292Z,102460.78
2023-01-23T11:32:59.486Z,102488.81
2023-01-23T11:35:30.638Z,102489.28
2023-01-23T11:38:01.742Z,102491.84
2023-01-23T11:40:28.720Z,102494.16
2023-01-23T11:42:55.915Z,102494.50
2023-01-23T11:45:50.106Z,102476.16
2023-01-23T11:48:24.758Z,102487.78
2023-01-23T11:51:11.491Z,102496.06
2023-01-23T11:53:48.300Z,102487.94
2023-01-23T11:56:24.381Z,102495.44
2023-01-23T11:59:32.805Z,102493.53
2023-01-23T12:02:13.343Z,102477.59
2023-01-23T12:04:59.151Z,102486.47
2023-01-23T12:07:26.981Z,102497.91
2023-01-23T12:10:02.177Z,102495.41
2023-01-23T12:12:45.820Z,102503.66
2023-01-23T12:15:43.802Z,102498.69
2023-01-23T12:18:52.619Z,102488.34
2023-01-23T12:21:27.620Z,102491.47
2023-01-23T12:24:13.016Z,102493.13
2023-01-23T12:26:56.312Z,102472.03
2023-01-23T12:29:36.630Z,102491.56
2023-01-23T12:32:26.456Z,102487.25
2023-01-23T12:35:14.612Z,102478.56
2023-01-23T12:37:44.699Z,102480.69
2023-01-23T12:40:24.448Z,102476.66
2023-01-23T12:43:13.370Z,102478.03
2023-01-23T12:45:53.433Z,102458.31
2023-01-23T12:48:28.658Z,102470.06
2023-01-23T12:51:17.159Z,102453.34
2023-01-23T12:53:48.740Z,102462.84
2023-01-23T12:56:23.499Z,102451.84
2023-01-23T12:59:14.484Z,102472.44
2023-01-23T13:02:12.381Z,102463.78
2023-01-23T13:04:50.905Z,102469.19
2023-01-23T13:07:41.476Z,102445.59
2023-01-23T13:11:01.711Z,102456.75
2023-01-23T13:13:29.672Z,102460.97
2023-01-23T13:16:10.763Z,102471.31
2023-01-23T13:18:57.480Z,102467.72
2023-01-23T13:21:43.832Z,102459.56
2023-01-23T13:25:12.720Z,102472.81
2023-01-23T13:27:41.421Z,102416.22
2023-01-23T13:30:26.485Z,102458.66
2023-01-23T13:33:00.862Z,102466.75
2023-01-23T13:35:40.284Z,102447.25
2023-01-23T13:38:22.285Z,102469.38
2023-01-23T13:41:14.482Z,102469.13
2023-01-23T13:43:48.028Z,102462.50
2023-01-23T13:46:39.631Z,102463.72
2023-01-23T14:21:55.131Z,102439.41
2023-01-23T14:24:42.669Z,102435.47
2023-01-23T14:27:21.808Z,102438.94
2023-01-23T14:30:01.148Z,102433.97
2023-01-23T14:32:33.459Z,102440.84
2023-01-23T14:35:00.486Z,102442.84
2023-01-23T14:37:29.405Z,102443.28
2023-01-23T14:40:01.973Z,102442.72
2023-01-23T14:42:34.840Z,102433.84
2023-01-23T14:45:03.058Z,102427.84
2023-01-23T14:47:42.380Z,102441.19
2023-01-23T14:50:11.940Z,102424.38
2023-01-23T14:52:39.008Z,102362.59
2023-01-23T14:55:29.340Z,102422.16
2023-01-23T14:57:59.478Z,102432.22
2023-01-23T15:00:28.001Z,102432.22
2023-01-23T15:02:56.471Z,102400.63
2023-01-23T15:05:33.650Z,102427.09
2023-01-23T15:08:06.050Z,102410.09
2023-01-23T15:10:41.534Z,102421.09
2023-01-23T15:13:34.491Z,102424.66
2023-01-23T15:16:04.805Z,102409.94
2023-01-23T15:18:35.081Z,102431.13
2023-01-23T15:21:07.307Z,102430.88
2023-01-23T15:23:39.129Z,102307.91
2023-01-23T15:26:11.911Z,102415.34
2023-01-23T15:28:48.896Z,102392.66
2023-01-23T15:31:31.708Z,102405.91
2023-01-23T15:34:16.893Z,102424.25
2023-01-23T15:36:49.621Z,102430.72
2023-01-23T15:39:24.501Z,102426.94
2023-01-23T15:42:02.260Z,102426.38
2023-01-23T15:44:31.868Z,102395.97
2023-01-23T15:47:04.027Z,102388.16
2023-01-23T15:49:33.147Z,102413.56
2023-01-23T15:52:02.956Z,102415.69
2023-01-23T15:54:36.068Z,102421.41
2023-01-23T15:57:08.932Z,102402.19
2023-01-23T15:59:36.917Z,102414.66
2023-01-23T16:02:05.338Z,102420.81
2023-01-23T16:04:33.216Z,102402.94
2023-01-23T16:07:05.438Z,102400.66
2023-01-23T16:09:35.424Z,102410.91
2023-01-23T16:12:03.205Z,102413.91
2023-01-23T16:14:30.368Z,102404.16
2023-01-23T16:17:04.749Z,102404.00
2023-01-23T16:19:38.597Z,102377.72
2023-01-23T16:22:05.986Z,102389.56
2023-01-23T16:24:39.528Z,102375.63
2023-01-23T16:27:07.121Z,102399.50
2023-01-23T16:29:35.357Z,102388.81
2023-01-23T16:32:03.411Z,102412.25
2023-01-23T16:34:30.581Z,102401.91
2023-01-23T16:37:01.028Z,102389.41
2023-01-23T16:39:31.290Z,102390.16
2023-01-23T16:41:58.821Z,102405.06
2023-01-23T16:44:27.039Z,102403.13
2023-01-23T16:46:54.153Z,102407.19
2023-01-23T16:49:21.507Z,102405.97
2023-01-23T16:51:56.467Z,102394.88
2023-01-23T16:54:24.451Z,102404.66
2023-01-23T16:56:52.925Z,102391.69
2023-01-23T16:59:39.097Z,102383.75
2023-01-23T17:02:23.418Z,102401.44
2023-01-23T17:04:50.667Z,102372.44
2023-01-23T17:07:19.476Z,102401.44
2023-01-23T17:09:47.525Z,102384.59
2023-01-23T17:12:18.980Z,102356.94
2023-01-23T17:14:47.341Z,102392.72
2023-01-23T17:17:25.844Z,102392.13
2023-01-23T17:19:53.371Z,102347.50
2023-01-23T17:22:24.562Z,102391.22
2023-01-23T17:24:51.585Z,102396.94
2023-01-23T17:27:18.634Z,102402.94
2023-01-23T17:29:45.650Z,102394.09
2023-01-23T17:32:35.446Z,102399.06
2023-01-23T17:35:06.470Z,102397.56
2023-01-23T17:37:35.264Z,102398.78
2023-01-23T17:40:02.696Z,102395.00
2023-01-23T17:42:31.047Z,102401.94
2023-01-23T17:44:58.027Z,102399.41
2023-01-23T17:47:25.777Z,102397.75
2023-01-23T17:49:54.874Z,102398.50
2023-01-23T17:52:22.424Z,102397.56
2023-01-23T17:54:49.821Z,102391.28
2023-01-23T17:57:17.820Z,102394.56
2023-01-23T17:59:45.474Z,102394.56
2023-01-23T18:02:26.931Z,102318.53
2023-01-23T18:04:55.400Z,102368.59
2023-01-23T18:07:22.544Z,102394.72
2023-01-23T18:09:49.896Z,102376.25
2023-01-23T18:12:28.853Z,102371.28
2023-01-23T18:15:13.821Z,102382.09
2023-01-23T18:18:12.915Z,102376.56
2023-01-23T18:20:40.265Z,102343.53
2023-01-23T18:23:11.937Z,102362.75
2023-01-23T18:25:44.331Z,102300.69
2023-01-23T18:28:21.759Z,102367.13
2023-01-23T18:31:02.932Z,102372.22
2023-01-23T18:33:35.945Z,102353.13
2023-01-23T18:36:33.007Z,102373.56
2023-01-23T18:39:36.156Z,102379.88
2023-01-23T18:42:24.381Z,102361.38
2023-01-23T18:44:59.405Z,102373.25
2023-01-23T18:47:26.673Z,102342.91
2023-01-23T18:49:53.849Z,102372.06
2023-01-23T18:52:25.075Z,102368.75
2023-01-23T18:55:00.139Z,102375.38
2023-01-23T18:57:32.762Z,102350.44
2023-01-23T19:00:12.840Z,102362.75
2023-01-23T19:02:55.341Z,102377.16
2023-01-23T19:05:30.156Z,102369.06
2023-01-23T19:07:57.848Z,102368.59
2023-01-23T19:10:29.188Z,102361.56
2023-01-23T19:13:42.302Z,102372.66
2023-01-23T19:16:17.587Z,102371.13
2023-01-23T19:18:53.625Z,102363.47
2023-01-23T19:21:28.495Z,102321.44
2023-01-23T19:24:00.708Z,102344.41
2023-01-23T19:26:30.406Z,102367.56
2023-01-23T19:28:59.779Z,102374.47
2023-01-23T19:31:31.659Z,102366.34
2023-01-23T19:33:59.831Z,102383.78
2023-01-23T19:36:29.274Z,102383.50
2023-01-23T19:39:03.236Z,102369.34
2023-01-23T19:41:43.602Z,102380.47
2023-01-23T19:44:16.868Z,102377.19
2023-01-23T19:46:44.484Z,102374.16
2023-01-23T19:49:12.298Z,102359.44
2023-01-23T19:51:40.400Z,102364.41
2023-01-23T19:54:09.583Z,102325.94
2023-01-23T19:56:36.866Z,102334.22
2023-01-23T19:59:03.847Z,102373.72
2023-01-23T20:01:43.544Z,102369.34
2023-01-23T20:04:20.866Z,102378.66
2023-01-23T20:06:49.198Z,102366.81
2023-01-23T20:09:16.249Z,102345.47
2023-01-23T20:11:44.435Z,102344.72
2023-01-23T20:14:12.420Z,102306.88
2023-01-23T20:16:41.084Z,102365.59
2023-01-23T20:19:08.476Z,102358.56
2023-01-23T20:21:35.605Z,102314.84
2023-01-23T20:24:02.630Z,102324.91
2023-01-23T20:26:29.685Z,102318.28
2023-01-23T20:28:58.201Z,102357.19
2023-01-23T20:31:29.130Z,102361.53
2023-01-23T20:33:57.405Z,102366.78
2023-01-23T20:36:24.401Z,102356.75
2023-01-23T20:38:51.528Z,102358.69
2023-01-23T20:41:34.704Z,102301.78
2023-01-23T20:44:14.297Z,102315.91
2023-01-23T20:46:41.669Z,102336.91
2023-01-23T20:49:14.352Z,102355.69
2023-01-23T20:51:41.590Z,102356.00
2023-01-23T20:54:08.628Z,102315.28
2023-01-23T20:56:38.848Z,102325.78
2023-01-23T20:59:23.120Z,102270.25
2023-01-23T21:02:08.802Z,102326.09
2023-01-23T21:04:37.454Z,102318.88
2023-01-23T21:07:04.888Z,102328.66
2023-01-23T21:09:33.643Z,102249.53
2023-01-23T21:12:00.775Z,102330.59
2023-01-23T21:14:28.179Z,102335.09
2023-01-23T21:16:55.276Z,102333.28
2023-01-23T21:19:22.510Z,102342.31
2023-01-23T21:21:49.578Z,102158.31
2023-01-23T21:24:16.744Z,102323.69
2023-01-23T21:26:43.970Z,102327.72
2023-01-23T21:29:11.161Z,102301.75
2023-01-23T21:31:39.681Z,102263.94
2023-01-23T21:34:12.739Z,102313.59
2023-01-23T21:36:41.596Z,102319.75
2023-01-23T21:39:10.609Z,102299.78
2023-01-23T21:41:37.607Z,102301.16
2023-01-23T21:44:04.676Z,102315.53
2023-01-23T21:46:34.223Z,102323.81
2023-01-23T21:49:01.583Z,102312.09
2023-01-23T21:51:28.520Z,102321.41
2023-01-23T21:53:55.827Z,102327.25
2023-01-23T21:56:23.837Z,102315.53
2023-01-23T21:58:51.028Z,102157.69
2023-01-23T22:01:32.969Z,102292.25
2023-01-23T22:04:09.941Z,102294.94
2023-01-23T22:06:39.000Z,102328.41
2023-01-23T22:09:07.000Z,102311.75
2023-01-23T22:11:34.591Z,102317.59
2023-01-23T22:14:01.614Z,102291.50
2023-01-23T22:16:47.000Z,102305.91
2023-01-23T22:19:17.084Z,102254.28
2023-01-23T22:21:46.457Z,102296.44
2023-01-23T22:24:14.364Z,102297.47
2023-01-23T22:26:41.361Z,102312.75
2023-01-23T22:29:08.928Z,102320.88
2023-01-23T22:31:36.009Z,102318.91
2023-01-23T22:34:03.149Z,102321.19
2023-01-23T22:36:30.121Z,102320.31
2023-01-23T22:38:57.203Z,102285.78
2023-01-23T22:41:25.009Z,102304.81
2023-01-23T22:43:56.541Z,102312.19
2023-01-23T22:46:24.018Z,102304.50
2023-01-23T22:48:51.761Z,102289.97
2023-01-23T22:51:23.668Z,102301.69
2023-01-23T22:53:52.398Z,102301.19
2023-01-23T22:56:19.637Z,102285.91
2023-01-23T22:58:48.328Z,102303.19
2023-01-23T23:01:16.362Z,102288.78
2023-01-23T23:03:43.635Z,102262.69
2023-01-23T23:06:13.745Z,102282.47
2023-01-23T23:08:41.063Z,102285.75
2023-01-23T23:11:10.888Z,102257.41
2023-01-23T23:13:39.597Z,102290.72
2023-01-23T23:16:11.980Z,102279.31
2023-01-23T23:18:39.470Z,102279.03
2023-01-23T23:21:09.924Z,102292.25
2023-01-23T23:23:37.394Z,102301.44
2023-01-23T23:26:06.539Z,102302.47
2023-01-23T23:28:34.176Z,102296.59
2023-01-23T23:31:01.528Z,102297.19
2023-01-23T23:33:28.633Z,102286.97
2023-01-23T23:35:55.795Z,102283.38
2023-01-23T23:38:22.735Z,102257.69
2023-01-23T23:40:56.560Z,102278.84
2023-01-23T23:43:24.327Z,102260.84
2023-01-23T23:45:56.605Z,102234.44
2023-01-23T23:48:24.635Z,102275.41
2023-01-23T23:50:52.041Z,102271.19
2023-01-23T23:53:19.180Z,102255.44
2023-01-23T23:55:47.159Z,102265.31
2023-01-23T23:58:16.076Z,102273.44
